sensor_id;sensor_type;location;lat;lon;timestamp;pressure;altitude;pressure_sealevel;temperature;humidity
18500;BME280;9379;52.134;11.576;2023-02-10T00:00:33;102672.66;;;4.76;76.92
18500;BME280;9379;52.134;11.576;2023-02-10T00:02:59;102680.03;;;4.93;76.75
18500;BME280;9379;52.134;11.576;2023-02-10T00:05:26;102682.19;;;4.80;77.09
18500;BME280;9379;52.134;11.576;2023-02-10T00:07:54;102682.91;;;4.85;77.22
18500;BME280;9379;52.134;11.576;2023-02-10T00:10:21;102684.34;;;4.67;78.13
18500;BME280;9379;52.134;11.576;2023-02-10T00:12:48;102669.34;;;4.69;77.91
18500;BME280;9379;52.134;11.576;2023-02-10T00:15:15;102685.25;;;4.94;77.88
18500;BME280;9379;52.134;11.576;2023-02-10T00:17:42;102670.25;;;4.96;77.88
18500;BME280;9379;52.134;11.576;2023-02-10T00:20:09;102660.44;;;4.74;77.95
18500;BME280;9379;52.134;11.576;2023-02-10T00:22:36;102678.00;;;4.73;78.81
18500;BME280;9379;52.134;11.576;2023-02-10T00:25:05;102669.19;;;4.74;78.86
18500;BME280;9379;52.134;11.576;2023-02-10T00:27:31;102653.84;;;4.88;78.06
18500;BME280;9379;52.134;11.576;2023-02-10T00:29:58;102673.34;;;5.09;78.17
18500;BME280;9379;52.134;11.576;2023-02-10T00:32:25;102683.44;;;4.96;78.55
18500;BME280;9379;52.134;11.576;2023-02-10T00:34:52;102677.00;;;5.05;78.40
18500;BME280;9379;52.134;11.576;2023-02-10T00:37:18;102676.66;;;4.89;78.65
18500;BME280;9379;52.134;11.576;2023-02-10T00:39:46;102686.91;;;4.98;78.50
18500;BME280;9379;52.134;11.576;2023-02-10T00:42:14;102674.78;;;5.19;78.17
18500;BME280;9379;52.134;11.576;2023-02-10T00:44:40;102674.16;;;5.13;77.97
18500;BME280;9379;52.134;11.576;2023-02-10T00:47:07;102690.69;;;4.90;78.94
18500;BME280;9379;52.134;11.576;2023-02-10T00:49:34;102681.94;;;5.16;78.58
18500;BME280;9379;52.134;11.576;2023-02-10T00:52:01;102672.41;;;5.12;79.16
18500;BME280;9379;52.134;11.576;2023-02-10T00:54:27;102680.28;;;5.13;79.43
18500;BME280;9379;52.134;11.576;2023-02-10T00:56:54;102683.38;;;5.26;79.50
18500;BME280;9379;52.134;11.576;2023-02-10T00:59:22;102686.91;;;5.25;79.93
18500;BME280;9379;52.134;11.576;2023-02-10T01:01:49;102702.16;;;5.15;80.91
18500;BME280;9379;52.134;11.576;2023-02-10T01:04:16;102700.44;;;5.14;81.42
18500;BME280;9379;52.134;11.576;2023-02-10T01:06:43;102699.97;;;5.02;82.30
18500;BME280;9379;52.134;11.576;2023-02-10T01:09:10;102690.69;;;4.90;82.40
18500;BME280;9379;52.134;11.576;2023-02-10T01:11:37;102705.84;;;4.82;83.92
18500;BME280;9379;52.134;11.576;2023-02-10T01:14:04;102694.78;;;4.71;84.29
18500;BME280;9379;52.134;11.576;2023-02-10T01:16:32;102699.56;;;4.86;83.72
18500;BME280;9379;52.134;11.576;2023-02-10T01:18:59;102711.59;;;4.66;84.39
18500;BME280;9379;52.134;11.576;2023-02-10T01:21:27;102715.44;;;4.84;84.31
18500;BME280;9379;52.134;11.576;2023-02-10T01:23:55;102703.41;;;4.76;83.81
18500;BME280;9379;52.134;11.576;2023-02-10T01:26:23;102709.38;;;4.51;84.63
18500;BME280;9379;52.134;11.576;2023-02-10T01:28:50;102707.59;;;4.53;84.58
18500;BME280;9379;52.134;11.576;2023-02-10T01:31:19;102711.91;;;4.56;84.82
18500;BME280;9379;52.134;11.576;2023-02-10T01:33:50;102702.50;;;4.77;84.17
18500;BME280;9379;52.134;11.576;2023-02-10T01:36:19;102704.28;;;4.76;83.55
18500;BME280;9379;52.134;11.576;2023-02-10T01:38:46;102714.53;;;4.56;83.68
18500;BME280;9379;52.134;11.576;2023-02-10T01:41:15;102718.09;;;4.55;83.79
18500;BME280;9379;52.134;11.576;2023-02-10T01:43:57;102707.84;;;4.74;83.50
18500;BME280;9379;52.134;11.576;2023-02-10T01:46:25;102710.25;;;4.81;83.03
18500;BME280;9379;52.134;11.576;2023-02-10T01:48:54;102711.16;;;4.51;83.79
18500;BME280;9379;52.134;11.576;2023-02-10T01:51:25;102707.81;;;4.75;82.87
18500;BME280;9379;52.134;11.576;2023-02-10T01:53:53;102714.03;;;4.73;83.02
18500;BME280;9379;52.134;11.576;2023-02-10T01:56:20;102700.97;;;4.69;82.61
18500;BME280;9379;52.134;11.576;2023-02-10T01:58:47;102708.84;;;4.69;82.55
18500;BME280;9379;52.134;11.576;2023-02-10T02:01:14;102720.25;;;4.70;82.42
18500;BME280;9379;52.134;11.576;2023-02-10T02:03:41;102708.31;;;4.58;82.20
18500;BME280;9379;52.134;11.576;2023-02-10T02:06:09;102715.25;;;4.90;81.63
18500;BME280;9379;52.134;11.576;2023-02-10T02:08:37;102712.41;;;4.96;81.31
18500;BME280;9379;52.134;11.576;2023-02-10T02:11:12;102721.75;;;5.07;80.81
18500;BME280;9379;52.134;11.576;2023-02-10T02:13:50;102721.22;;;4.95;81.18
18500;BME280;9379;52.134;11.576;2023-02-10T02:16:28;102717.66;;;4.98;81.45
18500;BME280;9379;52.134;11.576;2023-02-10T02:19:01;102721.94;;;4.73;81.72
18500;BME280;9379;52.134;11.576;2023-02-10T02:21:56;102727.19;;;4.73;82.45
18500;BME280;9379;52.134;11.576;2023-02-10T02:33:10;102729.28;;;4.32;84.98
18500;BME280;9379;52.134;11.576;2023-02-10T02:35:43;102735.22;;;4.07;84.58
18500;BME280;9379;52.134;11.576;2023-02-10T02:38:11;102728.38;;;4.33;85.51
18500;BME280;9379;52.134;11.576;2023-02-10T02:40:39;102734.03;;;4.49;84.72
18500;BME280;9379;52.134;11.576;2023-02-10T02:43:06;102742.28;;;4.36;85.41
18500;BME280;9379;52.134;11.576;2023-02-10T02:45:38;102742.88;;;4.15;87.11
18500;BME280;9379;52.134;11.576;2023-02-10T02:48:25;102744.88;;;4.69;85.31
18500;BME280;9379;52.134;11.576;2023-02-10T02:51:03;102733.63;;;4.64;84.89
18500;BME280;9379;52.134;11.576;2023-02-10T02:53:36;102743.38;;;4.60;85.97
18500;BME280;9379;52.134;11.576;2023-02-10T02:56:14;102729.97;;;4.68;85.86
18500;BME280;9379;52.134;11.576;2023-02-10T02:58:51;102700.78;;;4.46;86.97
18500;BME280;9379;52.134;11.576;2023-02-10T03:01:24;102736.13;;;4.37;89.13
18500;BME280;9379;52.134;11.576;2023-02-10T03:03:56;102744.22;;;4.61;88.62
18500;BME280;9379;52.134;11.576;2023-02-10T03:06:24;102738.59;;;4.44;89.10
18500;BME280;9379;52.134;11.576;2023-02-10T03:08:52;102747.06;;;4.55;88.94
18500;BME280;9379;52.134;11.576;2023-02-10T03:11:19;102753.63;;;4.38;89.55
18500;BME280;9379;52.134;11.576;2023-02-10T03:13:46;102758.34;;;4.27;90.62
18500;BME280;9379;52.134;11.576;2023-02-10T03:16:12;102750.59;;;4.54;90.12
18500;BME280;9379;52.134;11.576;2023-02-10T03:18:39;102754.84;;;4.58;89.15
18500;BME280;9379;52.134;11.576;2023-02-10T03:21:07;102762.72;;;4.27;91.01
18500;BME280;9379;52.134;11.576;2023-02-10T03:23:34;102768.56;;;4.38;90.66
18500;BME280;9379;52.134;11.576;2023-02-10T03:26:01;102763.41;;;4.35;90.92
18500;BME280;9379;52.134;11.576;2023-02-10T03:28:28;102778.19;;;4.41;90.64
18500;BME280;9379;52.134;11.576;2023-02-10T03:30:55;102776.88;;;4.55;89.96
18500;BME280;9379;52.134;11.576;2023-02-10T03:33:22;102778.25;;;4.68;89.41
18500;BME280;9379;52.134;11.576;2023-02-10T03:35:50;102776.38;;;4.72;89.42
18500;BME280;9379;52.134;11.576;2023-02-10T03:38:18;102783.56;;;4.67;89.92
18500;BME280;9379;52.134;11.576;2023-02-10T03:40:48;102785.75;;;4.82;88.99
18500;BME280;9379;52.134;11.576;2023-02-10T03:43:15;102790.31;;;4.77;88.56
18500;BME280;9379;52.134;11.576;2023-02-10T03:45:42;102794.41;;;4.86;88.98
18500;BME280;9379;52.134;11.576;2023-02-10T03:48:09;102792.88;;;5.08;87.58
18500;BME280;9379;52.134;11.576;2023-02-10T03:50:36;102786.84;;;5.05;87.91
18500;BME280;9379;52.134;11.576;2023-02-10T03:53:03;102786.19;;;4.98;87.56
18500;BME280;9379;52.134;11.576;2023-02-10T03:55:32;102782.63;;;4.99;87.35
18500;BME280;9379;52.134;11.576;2023-02-10T03:57:59;102779.91;;;5.02;86.85
18500;BME280;9379;52.134;11.576;2023-02-10T04:00:26;102778.34;;;5.24;86.52
18500;BME280;9379;52.134;11.576;2023-02-10T04:02:53;102773.16;;;5.49;85.16
18500;BME280;9379;52.134;11.576;2023-02-10T04:05:20;102777.75;;;5.43;85.06
18500;BME280;9379;52.134;11.576;2023-02-10T04:07:46;102782.16;;;5.42;85.76
18500;BME280;9379;52.134;11.576;2023-02-10T04:10:13;102782.94;;;5.46;85.25
18500;BME280;9379;52.134;11.576;2023-02-10T04:12:42;102788.56;;;5.62;84.47
18500;BME280;9379;52.134;11.576;2023-02-10T04:15:09;102781.97;;;5.48;85.27
18500;BME280;9379;52.134;11.576;2023-02-10T04:17:35;102780.31;;;5.46;84.97
18500;BME280;9379;52.134;11.576;2023-02-10T04:20:03;102778.13;;;5.31;85.93
18500;BME280;9379;52.134;11.576;2023-02-10T04:22:30;102783.47;;;5.55;85.20
18500;BME280;9379;52.134;11.576;2023-02-10T04:24:57;102785.09;;;5.33;85.87
18500;BME280;9379;52.134;11.576;2023-02-10T04:27:24;102782.94;;;5.46;85.26
18500;BME280;9379;52.134;11.576;2023-02-10T04:29:52;102782.59;;;5.56;85.35
18500;BME280;9379;52.134;11.576;2023-02-10T04:32:19;102785.38;;;5.52;84.96
18500;BME280;9379;52.134;11.576;2023-02-10T04:34:46;102795.34;;;5.42;85.74
18500;BME280;9379;52.134;11.576;2023-02-10T04:37:12;102798.69;;;5.19;86.60
18500;BME280;9379;52.134;11.576;2023-02-10T04:39:39;102801.38;;;5.18;86.66
18500;BME280;9379;52.134;11.576;2023-02-10T04:42:06;102803.50;;;5.35;86.59
18500;BME280;9379;52.134;11.576;2023-02-10T04:44:33;102784.03;;;5.39;85.69
18500;BME280;9379;52.134;11.576;2023-02-10T04:47:01;102800.81;;;5.36;85.98
18500;BME280;9379;52.134;11.576;2023-02-10T04:49:28;102797.69;;;5.23;87.21
18500;BME280;9379;52.134;11.576;2023-02-10T04:51:55;102798.50;;;5.53;86.54
18500;BME280;9379;52.134;11.576;2023-02-10T04:54:23;102784.56;;;5.50;85.56
18500;BME280;9379;52.134;11.576;2023-02-10T04:56:50;102798.72;;;5.74;84.88
18500;BME280;9379;52.134;11.576;2023-02-10T04:59:17;102805.50;;;5.54;85.37
18500;BME280;9379;52.134;11.576;2023-02-10T05:01:44;102781.59;;;5.33;86.38
18500;BME280;9379;52.134;11.576;2023-02-10T05:04:12;102784.84;;;5.13;87.37
18500;BME280;9379;52.134;11.576;2023-02-10T05:06:39;102794.81;;;4.72;89.09
18500;BME280;9379;52.134;11.576;2023-02-10T05:09:06;102791.03;;;4.82;89.27
18500;BME280;9379;52.134;11.576;2023-02-10T05:11:33;102791.31;;;4.72;89.51
18500;BME280;9379;52.134;11.576;2023-02-10T05:13:59;102796.63;;;5.01;88.47
18500;BME280;9379;52.134;11.576;2023-02-10T05:16:26;102795.00;;;4.95;88.44
18500;BME280;9379;52.134;11.576;2023-02-10T05:18:53;102793.06;;;5.02;88.32
18500;BME280;9379;52.134;11.576;2023-02-10T05:21:21;102796.16;;;5.16;88.07
18500;BME280;9379;52.134;11.576;2023-02-10T05:23:48;102784.81;;;4.54;90.28
18500;BME280;9379;52.134;11.576;2023-02-10T05:26:15;102793.84;;;4.76;89.61
18500;BME280;9379;52.134;11.576;2023-02-10T05:28:44;102792.13;;;4.44;90.62
18500;BME280;9379;52.134;11.576;2023-02-10T05:31:11;102797.38;;;4.44;90.94
18500;BME280;9379;52.134;11.576;2023-02-10T05:33:38;102790.53;;;4.37;91.87
18500;BME280;9379;52.134;11.576;2023-02-10T05:36:05;102787.75;;;4.43;91.86
18500;BME280;9379;52.134;11.576;2023-02-10T05:38:33;102796.47;;;4.45;91.67
18500;BME280;9379;52.134;11.576;2023-02-10T05:41:00;102797.22;;;4.18;93.70
18500;BME280;9379;52.134;11.576;2023-02-10T05:43:27;102790.03;;;4.55;91.77
18500;BME280;9379;52.134;11.576;2023-02-10T05:45:54;102785.78;;;4.50;91.97
18500;BME280;9379;52.134;11.576;2023-02-10T05:48:20;102776.69;;;4.61;91.57
18500;BME280;9379;52.134;11.576;2023-02-10T05:50:50;102774.09;;;4.60;91.95
18500;BME280;9379;52.134;11.576;2023-02-10T05:53:17;102780.28;;;4.59;92.26
18500;BME280;9379;52.134;11.576;2023-02-10T05:55:46;102766.25;;;4.58;91.54
18500;BME280;9379;52.134;11.576;2023-02-10T05:58:13;102764.72;;;4.81;90.72
18500;BME280;9379;52.134;11.576;2023-02-10T06:00:40;102771.72;;;4.51;91.25
18500;BME280;9379;52.134;11.576;2023-02-10T06:03:07;102775.09;;;4.87;90.69
18500;BME280;9379;52.134;11.576;2023-02-10T06:05:33;102781.16;;;4.27;93.08
18500;BME280;9379;52.134;11.576;2023-02-10T06:08:00;102788.47;;;4.48;92.26
18500;BME280;9379;52.134;11.576;2023-02-10T06:10:27;102782.72;;;4.66;91.64
18500;BME280;9379;52.134;11.576;2023-02-10T06:12:55;102788.53;;;4.47;91.38
18500;BME280;9379;52.134;11.576;2023-02-10T06:15:22;102788.94;;;4.62;91.55
18500;BME280;9379;52.134;11.576;2023-02-10T06:17:49;102784.34;;;5.00;89.91
18500;BME280;9379;52.134;11.576;2023-02-10T06:20:15;102775.41;;;4.76;89.89
18500;BME280;9379;52.134;11.576;2023-02-10T06:22:42;102787.72;;;4.76;90.78
18500;BME280;9379;52.134;11.576;2023-02-10T06:25:09;102792.47;;;4.92;90.17
18500;BME280;9379;52.134;11.576;2023-02-10T06:27:36;102788.28;;;4.87;89.53
18500;BME280;9379;52.134;11.576;2023-02-10T06:30:05;102800.19;;;4.69;90.08
18500;BME280;9379;52.134;11.576;2023-02-10T06:32:32;102801.59;;;4.81;90.00
18500;BME280;9379;52.134;11.576;2023-02-10T06:34:59;102800.59;;;4.86;90.17
18500;BME280;9379;52.134;11.576;2023-02-10T06:37:25;102815.53;;;4.55;90.95
18500;BME280;9379;52.134;11.576;2023-02-10T06:39:54;102813.72;;;4.88;90.20
18500;BME280;9379;52.134;11.576;2023-02-10T06:42:21;102818.91;;;4.58;90.55
18500;BME280;9379;52.134;11.576;2023-02-10T06:44:48;102822.97;;;5.01;89.06
18500;BME280;9379;52.134;11.576;2023-02-10T06:47:16;102832.28;;;5.13;88.60
18500;BME280;9379;52.134;11.576;2023-02-10T06:49:43;102828.00;;;5.38;87.58
18500;BME280;9379;52.134;11.576;2023-02-10T06:52:10;102825.81;;;4.93;88.74
18500;BME280;9379;52.134;11.576;2023-02-10T06:54:36;102832.47;;;4.45;91.76
18500;BME280;9379;52.134;11.576;2023-02-10T06:57:03;102835.69;;;4.56;91.89
18500;BME280;9379;52.134;11.576;2023-02-10T06:59:31;102853.19;;;4.57;91.64
18500;BME280;9379;52.134;11.576;2023-02-10T07:01:58;102835.25;;;4.71;90.86
18500;BME280;9379;52.134;11.576;2023-02-10T07:04:29;102847.22;;;4.83;90.06
18500;BME280;9379;52.134;11.576;2023-02-10T07:06:56;102848.47;;;4.69;90.72
18500;BME280;9379;52.134;11.576;2023-02-10T07:09:24;102843.75;;;4.81;89.60
18500;BME280;9379;52.134;11.576;2023-02-10T07:11:51;102850.97;;;5.05;89.02
18500;BME280;9379;52.134;11.576;2023-02-10T07:14:17;102848.81;;;4.88;89.51
18500;BME280;9379;52.134;11.576;2023-02-10T07:16:44;102843.09;;;5.04;89.14
18500;BME280;9379;52.134;11.576;2023-02-10T07:19:11;102846.41;;;4.81;89.88
18500;BME280;9379;52.134;11.576;2023-02-10T07:21:39;102839.34;;;4.81;89.84
18500;BME280;9379;52.134;11.576;2023-02-10T07:24:06;102839.66;;;5.02;89.36
18500;BME280;9379;52.134;11.576;2023-02-10T07:26:33;102822.53;;;4.87;88.84
18500;BME280;9379;52.134;11.576;2023-02-10T07:29:00;102852.56;;;5.11;88.57
18500;BME280;9379;52.134;11.576;2023-02-10T07:31:27;102853.88;;;5.25;88.26
18500;BME280;9379;52.134;11.576;2023-02-10T07:33:54;102839.22;;;4.86;88.76
18500;BME280;9379;52.134;11.576;2023-02-10T07:36:21;102857.84;;;5.09;88.65
18500;BME280;9379;52.134;11.576;2023-02-10T07:38:49;102861.38;;;5.10;88.85
18500;BME280;9379;52.134;11.576;2023-02-10T07:41:15;102862.50;;;5.31;87.96
18500;BME280;9379;52.134;11.576;2023-02-10T07:43:42;102857.47;;;5.23;88.24
18500;BME280;9379;52.134;11.576;2023-02-10T07:46:09;102858.19;;;5.28;87.87
18500;BME280;9379;52.134;11.576;2023-02-10T07:48:36;102845.56;;;5.10;87.99
18500;BME280;9379;52.134;11.576;2023-02-10T07:51:03;102870.03;;;5.43;87.27
18500;BME280;9379;52.134;11.576;2023-02-10T07:53:29;102876.00;;;5.20;88.72
18500;BME280;9379;52.134;11.576;2023-02-10T07:55:59;102877.94;;;5.44;87.39
18500;BME280;9379;52.134;11.576;2023-02-10T07:58:26;102881.81;;;5.61;86.76
18500;BME280;9379;52.134;11.576;2023-02-10T08:00:53;102883.06;;;5.49;87.30
18500;BME280;9379;52.134;11.576;2023-02-10T08:03:19;102891.50;;;5.31;88.16
18500;BME280;9379;52.134;11.576;2023-02-10T08:05:46;102885.56;;;5.24;88.59
18500;BME280;9379;52.134;11.576;2023-02-10T08:08:14;102883.84;;;5.23;88.38
18500;BME280;9379;52.134;11.576;2023-02-10T08:10:41;102875.84;;;5.26;88.13
18500;BME280;9379;52.134;11.576;2023-02-10T08:13:09;102888.88;;;5.31;87.79
18500;BME280;9379;52.134;11.576;2023-02-10T08:15:36;102883.28;;;5.12;88.69
18500;BME280;9379;52.134;11.576;2023-02-10T08:18:03;102892.09;;;5.40;87.30
18500;BME280;9379;52.134;11.576;2023-02-10T08:20:30;102882.19;;;5.19;87.51
18500;BME280;9379;52.134;11.576;2023-02-10T08:22:57;102887.34;;;5.23;88.22
18500;BME280;9379;52.134;11.576;2023-02-10T08:25:25;102868.53;;;5.36;87.13
18500;BME280;9379;52.134;11.576;2023-02-10T08:27:52;102895.31;;;5.20;87.84
18500;BME280;9379;52.134;11.576;2023-02-10T08:30:21;102872.78;;;5.40;86.93
18500;BME280;9379;52.134;11.576;2023-02-10T08:32:47;102898.69;;;5.55;86.47
18500;BME280;9379;52.134;11.576;2023-02-10T08:35:14;102886.06;;;5.37;87.04
18500;BME280;9379;52.134;11.576;2023-02-10T08:37:41;102888.81;;;5.32;87.54
18500;BME280;9379;52.134;11.576;2023-02-10T08:40:09;102894.63;;;5.73;86.25
18500;BME280;9379;52.134;11.576;2023-02-10T08:42:35;102902.53;;;5.73;85.95
18500;BME280;9379;52.134;11.576;2023-02-10T08:45:03;102893.47;;;5.81;85.90
18500;BME280;9379;52.134;11.576;2023-02-10T08:47:32;102901.13;;;5.89;85.52
18500;BME280;9379;52.134;11.576;2023-02-10T08:49:59;102896.41;;;6.00;85.13
18500;BME280;9379;52.134;11.576;2023-02-10T08:52:26;102898.88;;;5.77;85.87
18500;BME280;9379;52.134;11.576;2023-02-10T08:54:53;102906.06;;;6.01;85.30
18500;BME280;9379;52.134;11.576;2023-02-10T08:57:20;102909.28;;;6.11;85.54
18500;BME280;9379;52.134;11.576;2023-02-10T08:59:46;102904.09;;;6.08;84.85
18500;BME280;9379;52.134;11.576;2023-02-10T09:02:14;102914.72;;;6.06;85.32
18500;BME280;9379;52.134;11.576;2023-02-10T09:04:42;102906.69;;;6.09;85.00
18500;BME280;9379;52.134;11.576;2023-02-10T09:07:10;102908.72;;;6.28;84.37
18500;BME280;9379;52.134;11.576;2023-02-10T09:09:41;102914.94;;;5.99;85.75
18500;BME280;9379;52.134;11.576;2023-02-10T09:12:09;102917.13;;;6.12;85.48
18500;BME280;9379;52.134;11.576;2023-02-10T09:14:37;102913.78;;;6.34;84.36
18500;BME280;9379;52.134;11.576;2023-02-10T09:17:04;102917.16;;;6.39;83.79
18500;BME280;9379;52.134;11.576;2023-02-10T09:19:33;102910.50;;;6.27;84.91
18500;BME280;9379;52.134;11.576;2023-02-10T09:22:01;102917.81;;;6.19;85.89
18500;BME280;9379;52.134;11.576;2023-02-10T09:24:28;102913.56;;;6.15;85.96
18500;BME280;9379;52.134;11.576;2023-02-10T09:26:55;102906.16;;;6.26;85.51
18500;BME280;9379;52.134;11.576;2023-02-10T09:29:24;102894.44;;;6.07;86.44
18500;BME280;9379;52.134;11.576;2023-02-10T09:31:51;102908.44;;;6.37;85.79
18500;BME280;9379;52.134;11.576;2023-02-10T09:34:18;102900.34;;;6.41;85.93
18500;BME280;9379;52.134;11.576;2023-02-10T09:36:45;102895.03;;;6.17;86.54
18500;BME280;9379;52.134;11.576;2023-02-10T09:39:13;102900.25;;;6.69;85.27
18500;BME280;9379;52.134;11.576;2023-02-10T09:41:46;102900.91;;;6.51;85.27
18500;BME280;9379;52.134;11.576;2023-02-10T09:44:20;102904.50;;;6.22;86.32
18500;BME280;9379;52.134;11.576;2023-02-10T09:46:58;102908.91;;;6.22;86.56
18500;BME280;9379;52.134;11.576;2023-02-10T09:49:45;102911.94;;;6.37;85.89
18500;BME280;9379;52.134;11.576;2023-02-10T09:52:18;102913.72;;;6.37;86.39
18500;BME280;9379;52.134;11.576;2023-02-10T09:54:50;102916.19;;;6.41;86.52
18500;BME280;9379;52.134;11.576;2023-02-10T09:57:19;102918.25;;;6.58;86.35
18500;BME280;9379;52.134;11.576;2023-02-10T09:59:49;102912.97;;;6.58;85.88
18500;BME280;9379;52.134;11.576;2023-02-10T10:02:22;102922.72;;;6.56;86.81
18500;BME280;9379;52.134;11.576;2023-02-10T10:04:53;102923.06;;;6.72;85.82
18500;BME280;9379;52.134;11.576;2023-02-10T10:07:24;102920.38;;;6.98;84.67
18500;BME280;9379;52.134;11.576;2023-02-10T10:09:59;102924.50;;;7.06;84.59
18500;BME280;9379;52.134;11.576;2023-02-10T10:12:28;102933.09;;;6.87;84.54
18500;BME280;9379;52.134;11.576;2023-02-10T10:14:55;102935.25;;;6.51;86.01
18500;BME280;9379;52.134;11.576;2023-02-10T10:17:38;102927.22;;;6.79;85.61
18500;BME280;9379;52.134;11.576;2023-02-10T10:20:24;102927.44;;;6.73;85.75
18500;BME280;9379;52.134;11.576;2023-02-10T10:23:03;102935.13;;;7.04;84.49
18500;BME280;9379;52.134;11.576;2023-02-10T10:26:02;102923.31;;;7.14;84.82
18500;BME280;9379;52.134;11.576;2023-02-10T10:28:42;102924.69;;;7.24;84.11
18500;BME280;9379;52.134;11.576;2023-02-10T10:31:16;102920.78;;;7.35;83.90
18500;BME280;9379;52.134;11.576;2023-02-10T10:33:48;102914.28;;;7.20;83.84
18500;BME280;9379;52.134;11.576;2023-02-10T10:36:17;102898.28;;;7.46;83.49
18500;BME280;9379;52.134;11.576;2023-02-10T10:38:48;102903.78;;;7.64;83.30
18500;BME280;9379;52.134;11.576;2023-02-10T10:41:17;102903.88;;;7.84;82.42
18500;BME280;9379;52.134;11.576;2023-02-10T10:43:46;102894.53;;;7.52;83.05
18500;BME280;9379;52.134;11.576;2023-02-10T10:46:18;102887.25;;;7.80;82.97
18500;BME280;9379;52.134;11.576;2023-02-10T10:48:47;102893.41;;;7.81;82.75
18500;BME280;9379;52.134;11.576;2023-02-10T10:51:14;102883.25;;;7.92;82.15
18500;BME280;9379;52.134;11.576;2023-02-10T10:53:43;102889.47;;;7.91;82.28
18500;BME280;9379;52.134;11.576;2023-02-10T10:56:22;102887.69;;;7.92;82.13
18500;BME280;9379;52.134;11.576;2023-02-10T10:58:50;102887.75;;;8.12;81.97
18500;BME280;9379;52.134;11.576;2023-02-10T11:01:33;102868.63;;;8.26;82.27
18500;BME280;9379;52.134;11.576;2023-02-10T11:04:10;102880.47;;;7.95;82.04
18500;BME280;9379;52.134;11.576;2023-02-10T11:06:39;102884.44;;;8.27;81.53
18500;BME280;9379;52.134;11.576;2023-02-10T11:09:18;102881.31;;;8.39;81.08
18500;BME280;9379;52.134;11.576;2023-02-10T11:11:47;102889.91;;;8.65;80.71
18500;BME280;9379;52.134;11.576;2023-02-10T11:14:17;102878.81;;;8.57;80.97
18500;BME280;9379;52.134;11.576;2023-02-10T11:16:47;102876.94;;;8.59;80.90
18500;BME280;9379;52.134;11.576;2023-02-10T11:19:19;102875.53;;;8.70;80.80
18500;BME280;9379;52.134;11.576;2023-02-10T11:21:47;102874.22;;;8.81;80.36
18500;BME280;9379;52.134;11.576;2023-02-10T11:24:18;102864.19;;;8.87;79.75
18500;BME280;9379;52.134;11.576;2023-02-10T11:26:55;102872.59;;;8.76;81.05
18500;BME280;9379;52.134;11.576;2023-02-10T11:29:23;102872.44;;;8.61;81.04
18500;BME280;9379;52.134;11.576;2023-02-10T11:31:51;102857.38;;;8.41;82.50
18500;BME280;9379;52.134;11.576;2023-02-10T11:34:21;102879.84;;;8.93;81.20
18500;BME280;9379;52.134;11.576;2023-02-10T11:36:51;102862.91;;;8.96;79.80
18500;BME280;9379;52.134;11.576;2023-02-10T11:39:22;102878.50;;;9.41;79.01
18500;BME280;9379;52.134;11.576;2023-02-10T11:41:50;102876.31;;;9.12;80.07
18500;BME280;9379;52.134;11.576;2023-02-10T11:44:26;102873.06;;;8.86;80.95
18500;BME280;9379;52.134;11.576;2023-02-10T11:46:57;102879.16;;;8.88;81.01
18500;BME280;9379;52.134;11.576;2023-02-10T11:49:25;102869.25;;;9.31;80.08
18500;BME280;9379;52.134;11.576;2023-02-10T11:51:56;102872.47;;;9.56;78.50
18500;BME280;9379;52.134;11.576;2023-02-10T11:54:24;102875.47;;;9.49;78.30
18500;BME280;9379;52.134;11.576;2023-02-10T11:56:59;102877.94;;;9.53;78.74
18500;BME280;9379;52.134;11.576;2023-02-10T11:59:54;102876.22;;;9.52;78.20
18500;BME280;9379;52.134;11.576;2023-02-10T12:02:35;102862.16;;;9.50;78.80
18500;BME280;9379;52.134;11.576;2023-02-10T12:05:17;102870.31;;;10.01;77.41
18500;BME280;9379;52.134;11.576;2023-02-10T12:07:59;102873.41;;;9.55;78.58
18500;BME280;9379;52.134;11.576;2023-02-10T12:10:35;102871.13;;;9.29;79.21
18500;BME280;9379;52.134;11.576;2023-02-10T12:13:14;102874.41;;;9.15;80.13
18500;BME280;9379;52.134;11.576;2023-02-10T12:15:50;102869.63;;;8.84;81.45
18500;BME280;9379;52.134;11.576;2023-02-10T12:18:33;102866.53;;;8.74;81.26
18500;BME280;9379;52.134;11.576;2023-02-10T12:21:13;102873.22;;;8.63;81.96
18500;BME280;9379;52.134;11.576;2023-02-10T12:23:57;102863.91;;;8.32;82.92
18500;BME280;9379;52.134;11.576;2023-02-10T12:26:33;102868.19;;;8.14;84.21
18500;BME280;9379;52.134;11.576;2023-02-10T12:29:14;102868.53;;;8.49;82.90
18500;BME280;9379;52.134;11.576;2023-02-10T12:31:53;102867.97;;;8.41;83.18
18500;BME280;9379;52.134;11.576;2023-02-10T12:34:38;102875.41;;;8.53;82.83
18500;BME280;9379;52.134;11.576;2023-02-10T12:37:20;102879.66;;;8.37;83.55
18500;BME280;9379;52.134;11.576;2023-02-10T12:40:17;102866.75;;;8.28;83.25
18500;BME280;9379;52.134;11.576;2023-02-10T12:42:55;102875.06;;;8.40;83.19
18500;BME280;9379;52.134;11.576;2023-02-10T12:45:28;102856.66;;;8.37;82.91
18500;BME280;9379;52.134;11.576;2023-02-10T12:48:07;102874.06;;;8.43;82.36
18500;BME280;9379;52.134;11.576;2023-02-10T12:51:00;102881.94;;;8.24;83.71
18500;BME280;9379;52.134;11.576;2023-02-10T12:53:35;102879.16;;;8.05;84.20
18500;BME280;9379;52.134;11.576;2023-02-10T12:56:07;102874.75;;;7.84;84.77
18500;BME280;9379;52.134;11.576;2023-02-10T12:58:40;102874.81;;;8.04;84.73
18500;BME280;9379;52.134;11.576;2023-02-10T13:01:12;102878.09;;;8.09;84.26
18500;BME280;9379;52.134;11.576;2023-02-10T13:03:43;102879.28;;;8.24;83.44
18500;BME280;9379;52.134;11.576;2023-02-10T13:06:27;102872.91;;;8.28;83.63
18500;BME280;9379;52.134;11.576;2023-02-10T13:09:03;102870.97;;;8.54;82.85
18500;BME280;9379;52.134;11.576;2023-02-10T13:11:36;102860.22;;;8.77;81.87
18500;BME280;9379;52.134;11.576;2023-02-10T13:14:13;102858.06;;;8.46;83.09
18500;BME280;9379;52.134;11.576;2023-02-10T13:16:50;102868.06;;;8.60;82.54
18500;BME280;9379;52.134;11.576;2023-02-10T13:19:36;102846.25;;;8.53;82.79
18500;BME280;9379;52.134;11.576;2023-02-10T13:22:09;102853.94;;;8.39;83.69